Time;durP1;ratioP1;P1;durP2;ratioP2;P2;SDS_P1;SDS_P2;PMS_P1;PMS_P2;Temp;Humidity;BMP_temperature;BMP_pressure;BME280_temperature;BME280_humidity;BME280_pressure;Samples;Min_cycle;Max_cycle;Signal;HPM_P1;HPM_P2
2024/02/25 00:02:06;;;;;;;6.72;2.53;;;;;;;7.95;94.55;99659.59;5066103;28;20068;-65
2024/02/25 00:04:33;;;;;;;6.97;2.28;;;;;;;8.09;94.12;99661.41;5030940;28;20631;-65
2024/02/25 00:07:01;;;;;;;6.75;2.05;;;;;;;8.09;93.22;99664.13;5065373;28;20057;-66
2024/02/25 00:09:28;;;;;;;5.72;2.60;;;;;;;7.97;93.96;99657.34;5049309;28;20056;-66
2024/02/25 00:11:55;;;;;;;6.50;2.38;;;;;;;8.11;93.55;99662.66;5067840;28;20052;-65
2024/02/25 00:14:28;;;;;;;7.38;1.80;;;;;;;8.12;92.86;99666.22;5067733;28;20053;-65
2024/02/25 00:16:56;;;;;;;8.80;2.15;;;;;;;7.98;93.11;99664.44;5066385;28;20045;-66
2024/02/25 00:19:23;;;;;;;6.20;2.08;;;;;;;7.96;93.55;99666.72;5065964;28;20539;-66
2024/02/25 00:21:53;;;;;;;8.10;2.25;;;;;;;7.80;94.45;99673.78;5066276;28;20056;-66
2024/02/25 00:24:22;;;;;;;6.78;2.10;;;;;;;7.74;95.21;99675.06;5065595;28;20511;-65
2024/02/25 00:26:49;;;;;;;11.27;2.30;;;;;;;7.84;94.67;99669.28;5065910;28;20048;-65
2024/02/25 00:29:17;;;;;;;10.32;2.30;;;;;;;7.80;94.51;99670.22;5049405;28;20053;-66
2024/02/25 00:31:44;;;;;;;8.95;2.20;;;;;;;7.80;94.70;99667.50;5068132;28;20057;-66
2024/02/25 00:34:12;;;;;;;7.78;1.85;;;;;;;7.63;95.71;99672.94;5066073;28;20052;-66
2024/02/25 00:36:41;;;;;;;8.13;2.33;;;;;;;7.63;95.00;99673.75;5049910;28;20067;-65
2024/02/25 00:39:09;;;;;;;7.28;2.28;;;;;;;7.73;94.91;99675.38;5058786;28;20052;-65
2024/02/25 00:41:36;;;;;;;6.40;2.58;;;;;;;7.81;95.23;99674.59;5050338;28;20057;-66
2024/02/25 00:44:04;;;;;;;7.13;2.30;;;;;;;7.62;95.37;99676.78;5087875;28;20711;-65
2024/02/25 00:46:31;;;;;;;8.70;2.80;;;;;;;7.74;95.65;99685.22;5069106;28;20074;-64
2024/02/25 00:48:59;;;;;;;9.27;2.00;;;;;;;7.86;94.53;99685.41;5075397;28;20052;-64
2024/02/25 00:51:27;;;;;;;7.28;2.15;;;;;;;7.77;93.96;99679.09;5053088;28;20053;-65
2024/02/25 00:53:54;;;;;;;5.43;1.92;;;;;;;7.64;95.15;99680.03;5071617;28;20053;-65
2024/02/25 00:56:22;;;;;;;6.75;2.70;;;;;;;7.78;94.88;99680.72;5069407;28;20048;-65
2024/02/25 00:58:49;;;;;;;9.48;2.50;;;;;;;7.58;95.18;99686.81;5076212;28;20464;-65
2024/02/25 01:01:16;;;;;;;10.05;2.33;;;;;;;7.54;96.34;99686.63;5090120;28;20060;-65
2024/02/25 01:03:44;;;;;;;8.43;2.45;;;;;;;7.68;95.76;99689.25;5071003;28;20052;-65
2024/02/25 01:06:12;;;;;;;9.52;2.60;;;;;;;7.57;96.70;99680.50;5062777;28;20495;-66
2024/02/25 01:08:41;;;;;;;8.77;2.85;;;;;;;7.70;96.24;99679.59;5059269;28;20060;-66
2024/02/25 01:11:09;;;;;;;7.80;2.40;;;;;;;7.63;96.95;99675.69;5070815;28;20067;-66
2024/02/25 01:13:36;;;;;;;12.02;2.50;;;;;;;7.70;96.53;99685.06;5069489;28;20295;-66
2024/02/25 01:16:04;;;;;;;9.65;2.60;;;;;;;8.07;95.78;99675.44;5069968;28;20036;-66
2024/02/25 01:18:32;;;;;;;9.77;2.20;;;;;;;7.89;94.36;99673.78;5066778;28;20082;-66
2024/02/25 01:21:00;;;;;;;7.10;2.25;;;;;;;7.99;94.35;99663.31;5067472;28;20060;-66
2024/02/25 01:23:27;;;;;;;8.68;2.40;;;;;;;7.96;94.85;99665.91;5068132;28;20064;-65
2024/02/25 01:25:55;;;;;;;6.10;2.30;;;;;;;8.07;94.56;99658.97;5050974;28;20052;-66
2024/02/25 01:28:22;;;;;;;6.45;2.42;;;;;;;8.13;94.04;99662.34;5066931;28;20062;-65
2024/02/25 01:30:49;;;;;;;17.38;2.95;;;;;;;7.83;94.19;99662.19;5069000;28;20044;-65
2024/02/25 01:33:17;;;;;;;10.50;2.53;;;;;;;7.92;94.68;99652.03;5068252;28;20053;-65
2024/02/25 01:35:45;;;;;;;6.85;1.95;;;;;;;7.69;95.60;99658.78;5068963;28;20768;-65
2024/02/25 01:38:12;;;;;;;8.82;2.63;;;;;;;7.79;95.31;99652.19;5070604;28;20055;-65
2024/02/25 01:40:39;;;;;;;7.03;2.08;;;;;;;7.77;95.01;99646.22;5069212;28;20060;-65
2024/02/25 01:43:08;;;;;;;5.90;2.17;;;;;;;7.83;94.83;99651.22;5070196;28;20056;-65
2024/02/25 01:45:36;;;;;;;7.35;2.63;;;;;;;7.69;95.09;99649.72;5085233;28;20060;-65
2024/02/25 01:48:05;;;;;;;7.30;2.50;;;;;;;7.76;95.60;99644.59;5068228;28;20052;-66
2024/02/25 01:50:33;;;;;;;11.23;2.35;;;;;;;7.90;94.77;99639.75;5070153;28;20063;-65
2024/02/25 01:53:01;;;;;;;8.00;2.20;;;;;;;7.87;94.46;99643.16;5068644;28;20053;-65
2024/02/25 01:55:33;;;;;;;7.20;2.30;;;;;;;7.83;94.51;99634.75;5034834;28;20048;-66
2024/02/25 01:58:02;;;;;;;8.23;1.85;;;;;;;7.80;94.52;99640.09;5051426;28;20060;-65
2024/02/25 02:00:30;;;;;;;8.13;2.13;;;;;;;7.76;94.61;99639.91;5061576;28;20041;-66
2024/02/25 02:03:00;;;;;;;8.68;2.25;;;;;;;7.79;94.04;99643.97;5062410;28;20060;-64
2024/02/25 02:05:28;;;;;;;5.63;2.25;;;;;;;7.70;93.92;99640.41;5070132;28;20060;-66
2024/02/25 02:07:56;;;;;;;10.55;2.55;;;;;;;7.69;94.54;99639.59;5069935;28;20036;-66
2024/02/25 02:10:24;;;;;;;8.88;2.78;;;;;;;7.48;95.13;99640.53;5064014;28;20048;-66
2024/02/25 02:12:51;;;;;;;11.32;2.85;;;;;;;7.76;95.15;99631.69;5068601;28;20063;-66
2024/02/25 02:15:18;;;;;;;9.57;2.30;;;;;;;7.71;94.83;99634.59;5068401;28;20087;-66
2024/02/25 02:17:46;;;;;;;7.15;2.38;;;;;;;7.62;94.99;99628.28;5069492;28;20056;-66
2024/02/25 02:20:18;;;;;;;9.13;2.40;;;;;;;7.59;95.24;99631.69;5051420;28;20511;-65
2024/02/25 02:22:46;;;;;;;10.65;2.72;;;;;;;7.48;95.90;99633.09;5051472;28;20048;-65
2024/02/25 02:25:15;;;;;;;10.27;2.58;;;;;;;7.56;95.53;99635.06;5069118;28;20445;-65
2024/02/25 02:27:44;;;;;;;12.30;2.67;;;;;;;7.54;95.25;99626.34;5051656;28;20547;-65
2024/02/25 02:30:11;;;;;;;12.18;2.75;;;;;;;7.34;96.51;99628.91;5066403;28;20057;-65
2024/02/25 02:32:39;;;;;;;13.50;3.00;;;;;;;7.36;96.91;99626.63;5049540;28;20082;-66
2024/02/25 02:35:07;;;;;;;6.72;2.35;;;;;;;7.38;95.98;99630.66;5064112;28;20499;-65
2024/02/25 02:37:35;;;;;;;9.50;2.65;;;;;;;7.14;97.84;99622.06;5054478;28;20051;-65
2024/02/25 02:40:04;;;;;;;12.70;2.75;;;;;;;7.17;98.07;99621.41;5056352;28;20063;-65
2024/02/25 02:42:31;;;;;;;12.32;3.28;;;;;;;7.23;98.08;99624.81;5049655;28;20875;-64
2024/02/25 02:45:00;;;;;;;9.77;2.80;;;;;;;7.21;97.63;99627.88;5068485;28;20052;-65
2024/02/25 02:47:28;;;;;;;9.32;2.60;;;;;;;7.44;97.45;99629.41;5084715;28;20064;-65
2024/02/25 02:49:55;;;;;;;8.10;2.50;;;;;;;7.28;96.78;99621.94;5047783;28;20053;-65
2024/02/25 02:52:23;;;;;;;8.30;2.45;;;;;;;7.12;97.69;99618.00;5068696;28;20058;-66
2024/02/25 02:54:50;;;;;;;18.17;3.30;;;;;;;7.24;98.06;99616.28;5070258;28;20056;-65
2024/02/25 02:57:18;;;;;;;16.20;3.42;;;;;;;7.34;97.65;99613.25;5068434;28;20063;-65
2024/02/25 02:59:47;;;;;;;9.55;2.70;;;;;;;7.25;98.12;99612.44;5069396;28;20044;-65
2024/02/25 03:02:14;;;;;;;11.15;2.88;;;;;;;7.28;97.43;99611.78;5069102;28;20051;-67
2024/02/25 03:04:42;;;;;;;10.32;2.75;;;;;;;7.33;97.64;99614.38;5050780;28;20066;-66
2024/02/25 03:07:09;;;;;;;12.40;2.75;;;;;;;7.30;97.76;99611.47;5050543;28;20052;-66
2024/02/25 03:09:37;;;;;;;12.23;3.25;;;;;;;7.25;97.69;99612.44;5050229;28;20055;-65
2024/02/25 03:12:05;;;;;;;14.02;3.20;;;;;;;7.26;97.80;99610.50;5049831;28;20552;-65
2024/02/25 03:14:34;;;;;;;9.82;2.83;;;;;;;7.17;98.66;99609.66;5049897;28;20052;-66
2024/02/25 03:17:01;;;;;;;9.30;3.15;;;;;;;7.14;98.28;99604.81;5068738;28;20461;-65
2024/02/25 03:19:29;;;;;;;11.23;2.78;;;;;;;7.29;97.92;99609.84;5068289;28;20061;-64
2024/02/25 03:21:56;;;;;;;12.93;2.90;;;;;;;7.09;98.36;99610.44;5067159;28;20856;-65
2024/02/25 03:24:23;;;;;;;10.63;3.10;;;;;;;7.19;98.65;99610.97;5065644;28;20069;-65
2024/02/25 03:26:51;;;;;;;11.25;2.85;;;;;;;7.31;97.10;99610.34;5047044;28;20055;-65
2024/02/25 03:29:19;;;;;;;12.50;2.60;;;;;;;7.36;96.33;99601.97;5045264;28;20500;-65
2024/02/25 03:31:47;;;;;;;12.13;3.28;;;;;;;7.25;96.47;99609.69;5045834;28;20070;-65
2024/02/25 03:34:14;;;;;;;8.15;2.80;;;;;;;7.28;96.49;99610.97;5057935;28;20053;-65
2024/02/25 03:36:42;;;;;;;10.48;2.60;;;;;;;7.44;96.16;99607.50;5047610;28;20064;-65
2024/02/25 03:39:10;;;;;;;12.63;3.47;;;;;;;7.39;95.89;99604.88;5067712;28;20056;-65
2024/02/25 03:41:37;;;;;;;12.00;3.03;;;;;;;7.47;96.37;99603.28;5066178;28;20048;-66
2024/02/25 03:44:05;;;;;;;9.88;3.08;;;;;;;7.36;96.13;99604.69;5066848;28;20052;-65
2024/02/25 03:46:32;;;;;;;9.82;3.40;;;;;;;7.35;96.29;99601.19;5047515;28;20045;-65
2024/02/25 03:49:00;;;;;;;11.48;2.90;;;;;;;7.27;96.74;99601.16;5067921;28;20723;-64
2024/02/25 03:51:28;;;;;;;11.73;3.20;;;;;;;7.36;96.24;99599.22;5066344;28;20515;-65
2024/02/25 03:53:55;;;;;;;10.75;3.30;;;;;;;7.52;95.89;99600.38;5068312;28;20412;-65
2024/02/25 03:56:24;;;;;;;10.00;3.05;;;;;;;7.57;95.24;99602.97;5066053;28;20443;-66
2024/02/25 03:58:53;;;;;;;13.75;3.70;;;;;;;7.58;94.96;99599.91;5049359;28;20055;-64
2024/02/25 04:01:22;;;;;;;12.05;2.50;;;;;;;7.55;94.83;99600.56;5068233;28;20118;-65
2024/02/25 04:03:50;;;;;;;;;;;;;;;7.40;95.02;99595.53;5050721;28;20075;-64
2024/02/25 04:06:18;;;;;;;9.18;2.95;;;;;;;7.40;95.43;99600.22;5068152;28;19925;-65
2024/02/25 04:08:45;;;;;;;11.75;3.15;;;;;;;7.41;94.77;99599.09;5064559;28;20067;-65
2024/02/25 04:11:13;;;;;;;14.23;2.70;;;;;;;7.49;94.49;99590.91;5045826;28;20060;-65
2024/02/25 04:13:40;;;;;;;19.30;3.60;;;;;;;7.33;95.50;99591.66;5046246;28;20049;-65
2024/02/25 04:16:07;;;;;;;12.55;3.50;;;;;;;7.39;95.89;99591.19;5047359;28;20582;-66
2024/02/25 04:18:34;;;;;;;14.57;3.13;;;;;;;7.22;95.35;99595.84;5048144;28;20060;-65
2024/02/25 04:21:02;;;;;;;13.93;3.13;;;;;;;7.30;95.62;99595.03;5047150;28;20519;-65
2024/02/25 04:23:30;;;;;;;8.45;2.58;;;;;;;7.40;94.67;99592.81;5050680;28;20069;-64
2024/02/25 04:25:57;;;;;;;11.20;2.92;;;;;;;7.42;94.84;99589.75;5050769;28;20075;-64
2024/02/25 04:28:28;;;;;;;13.45;3.47;;;;;;;7.40;94.56;99598.28;5032370;28;20444;-65
2024/02/25 04:30:55;;;;;;;13.30;3.35;;;;;;;7.35;94.54;99603.09;5060458;28;20503;-66
2024/02/25 04:33:22;;;;;;;11.45;3.38;;;;;;;7.14;95.61;99599.34;5069232;28;20060;-64
2024/02/25 04:35:51;;;;;;;13.18;3.30;;;;;;;7.06;96.33;99600.91;5069883;28;20055;-65
2024/02/25 04:38:19;;;;;;;13.82;2.95;;;;;;;7.22;95.73;99604.06;5071761;28;20040;-65
2024/02/25 04:40:52;;;;;;;12.85;3.30;;;;;;;7.20;95.24;99606.28;5071962;28;20048;-66
2024/02/25 04:43:20;;;;;;;13.20;3.10;;;;;;;7.06;95.55;99616.56;5053882;28;20049;-65
2024/02/25 04:45:47;;;;;;;10.32;2.90;;;;;;;7.17;95.67;99618.69;5071456;28;20055;-65
2024/02/25 04:48:14;;;;;;;13.00;3.47;;;;;;;7.14;95.24;99615.78;5069459;28;20052;-65
2024/02/25 04:50:42;;;;;;;10.07;3.42;;;;;;;7.13;95.36;99619.66;5071133;28;20052;-65
2024/02/25 04:53:10;;;;;;;13.40;3.20;;;;;;;7.36;94.70;99610.19;5071325;28;20632;-64
2024/02/25 04:55:37;;;;;;;14.82;3.83;;;;;;;7.08;94.32;99606.09;5069915;28;20060;-65
2024/02/25 04:58:07;;;;;;;11.13;3.10;;;;;;;7.14;94.52;99605.63;5071412;28;20052;-65
2024/02/25 05:00:34;;;;;;;11.75;3.88;;;;;;;7.14;94.93;99597.41;5069223;28;20060;-66
2024/02/25 05:03:02;;;;;;;11.48;3.45;;;;;;;7.21;94.47;99594.22;5071077;28;20101;-64
2024/02/25 05:05:29;;;;;;;14.05;3.90;;;;;;;7.08;95.43;99595.94;5071099;28;20047;-64
2024/02/25 05:07:57;;;;;;;11.02;3.50;;;;;;;7.22;95.13;99598.56;5071070;28;20053;-64
2024/02/25 05:10:24;;;;;;;17.23;3.55;;;;;;;7.13;95.48;99598.53;5071179;28;20499;-65
2024/02/25 05:12:51;;;;;;;19.30;4.10;;;;;;;7.25;95.24;99597.94;5069380;28;20059;-64
2024/02/25 05:15:18;;;;;;;8.57;3.08;;;;;;;7.07;95.85;99608.03;5052576;28;20059;-65
2024/02/25 05:17:46;;;;;;;11.73;3.15;;;;;;;7.02;97.07;99608.16;5068477;28;20044;-64
2024/02/25 05:20:14;;;;;;;13.05;3.50;;;;;;;6.99;98.29;99603.31;5067599;28;20056;-64
2024/02/25 05:22:41;;;;;;;16.48;3.55;;;;;;;6.91;99.60;99601.34;5070169;28;20060;-65
2024/02/25 05:25:10;;;;;;;17.13;4.28;;;;;;;7.08;99.31;99595.16;5069137;28;20052;-64
2024/02/25 05:27:39;;;;;;;16.27;3.67;;;;;;;6.91;98.84;99597.81;5052567;28;20048;-65
2024/02/25 05:30:09;;;;;;;23.52;4.25;;;;;;;6.97;99.46;99600.09;5053646;28;20055;-64
2024/02/25 05:32:37;;;;;;;16.23;4.35;;;;;;;7.21;99.18;99596.94;5069744;28;20063;-65
2024/02/25 05:35:06;;;;;;;18.25;3.88;;;;;;;7.19;99.09;99607.41;5068766;28;20060;-64
2024/02/25 05:37:34;;;;;;;15.55;4.13;;;;;;;7.20;98.88;99600.81;5071091;28;20053;-64
2024/02/25 05:40:03;;;;;;;14.05;4.07;;;;;;;7.16;99.42;99599.84;5071103;28;20048;-66
2024/02/25 05:42:31;;;;;;;16.45;4.07;;;;;;;7.28;99.40;99592.63;5068960;28;20071;-64
2024/02/25 05:44:58;;;;;;;17.25;3.42;;;;;;;7.29;99.07;99601.63;5070233;28;20049;-64
2024/02/25 05:47:26;;;;;;;13.93;3.65;;;;;;;7.24;100.00;99599.03;5069038;28;20119;-65
2024/02/25 05:49:55;;;;;;;19.27;4.57;;;;;;;7.25;100.00;99595.19;5070397;28;20068;-65
2024/02/25 05:52:22;;;;;;;15.82;4.30;;;;;;;7.24;100.00;99599.84;5070391;28;20083;-64
2024/02/25 05:54:50;;;;;;;15.68;4.47;;;;;;;7.14;100.00;99605.63;5069979;28;20060;-65
2024/02/25 05:57:17;;;;;;;17.58;4.78;;;;;;;7.19;100.00;99599.19;5070650;28;20056;-64
2024/02/25 05:59:47;;;;;;;20.63;5.18;;;;;;;7.31;100.00;99586.50;5070330;28;20052;-65
2024/02/25 06:02:15;;;;;;;21.40;4.90;;;;;;;7.28;100.00;99587.16;5069696;28;20056;-64
2024/02/25 06:04:42;;;;;;;16.38;4.38;;;;;;;7.16;100.00;99592.44;5068483;28;20053;-64
2024/02/25 06:07:09;;;;;;;16.52;4.38;;;;;;;7.20;100.00;99589.88;5068881;28;20060;-64
2024/02/25 06:09:37;;;;;;;17.95;4.72;;;;;;;7.12;100.00;99585.97;5069916;28;20048;-64
2024/02/25 06:12:04;;;;;;;17.02;4.53;;;;;;;7.29;100.00;99582.44;5061678;28;20044;-66
2024/02/25 06:14:32;;;;;;;16.55;4.15;;;;;;;7.37;100.00;99578.94;5050097;28;20060;-64
2024/02/25 06:16:59;;;;;;;14.75;3.97;;;;;;;7.43;100.00;99572.16;5047958;28;20066;-64
2024/02/25 06:19:27;;;;;;;13.77;4.22;;;;;;;7.40;100.00;99575.56;5048134;28;20045;-64
2024/02/25 06:21:54;;;;;;;11.40;4.07;;;;;;;7.51;100.00;99569.47;5050258;28;20052;-64
2024/02/25 06:24:22;;;;;;;17.92;4.40;;;;;;;7.49;100.00;99568.97;5048149;28;20524;-64
2024/02/25 06:26:49;;;;;;;12.98;3.88;;;;;;;7.47;100.00;99567.66;5032373;28;20064;-64
2024/02/25 06:29:17;;;;;;;15.48;3.90;;;;;;;7.47;100.00;99564.94;5061664;28;20059;-65
2024/02/25 06:31:44;;;;;;;15.35;4.40;;;;;;;7.62;100.00;99568.00;5050384;28;20079;-65
2024/02/25 06:34:12;;;;;;;13.80;4.25;;;;;;;7.61;100.00;99555.44;5062676;28;20060;-65
2024/02/25 06:36:40;;;;;;;19.48;4.43;;;;;;;7.47;100.00;99565.75;5067384;28;20056;-64
2024/02/25 06:39:10;;;;;;;20.88;4.53;;;;;;;7.52;100.00;99562.03;5068921;28;20059;-64
2024/02/25 06:41:37;;;;;;;;;;;;;;;7.49;100.00;99563.50;5049096;28;20061;-65
2024/02/25 06:44:05;;;;;;;20.90;4.38;;;;;;;7.40;100.00;99570.88;5059661;28;19931;-65
2024/02/25 06:46:32;;;;;;;20.38;4.45;;;;;;;7.69;100.00;99567.50;5050162;28;20053;-65
2024/02/25 06:49:00;;;;;;;15.73;4.00;;;;;;;7.58;100.00;99558.00;5039781;28;20055;-64
2024/02/25 06:51:28;;;;;;;21.77;4.70;;;;;;;7.46;100.00;99557.84;5066484;28;20644;-65
2024/02/25 06:53:55;;;;;;;18.27;4.63;;;;;;;7.49;100.00;99558.00;5033552;28;20053;-65
2024/02/25 06:56:23;;;;;;;18.88;5.18;;;;;;;7.44;100.00;99555.44;5069321;28;20044;-65
2024/02/25 06:58:51;;;;;;;17.80;4.70;;;;;;;7.56;100.00;99549.31;5067416;28;20056;-64
2024/02/25 07:01:19;;;;;;;16.30;4.15;;;;;;;7.53;100.00;99541.75;5066820;28;20048;-64
2024/02/25 07:03:48;;;;;;;14.90;4.50;;;;;;;7.62;100.00;99546.06;5067103;28;20530;-64
2024/02/25 07:06:16;;;;;;;23.17;5.20;;;;;;;7.62;100.00;99543.34;5068921;28;20067;-64
2024/02/25 07:08:43;;;;;;;16.27;4.45;;;;;;;7.70;100.00;99542.56;5083462;28;20060;-65
2024/02/25 07:11:18;;;;;;;21.27;4.78;;;;;;;7.69;100.00;99540.91;5066514;28;20060;-66
2024/02/25 07:13:46;;;;;;;16.38;4.35;;;;;;;7.64;100.00;99541.09;5067161;28;20056;-66
2024/02/25 07:16:14;;;;;;;14.82;4.25;;;;;;;7.59;100.00;99538.50;5068379;28;20498;-65
2024/02/25 07:18:41;;;;;;;17.00;4.20;;;;;;;7.72;100.00;99536.75;5050479;28;20048;-65
2024/02/25 07:21:11;;;;;;;22.58;4.63;;;;;;;7.68;100.00;99525.63;5068347;28;20053;-65
2024/02/25 07:23:43;;;;;;;16.83;4.07;;;;;;;7.82;100.00;99528.19;5068607;28;20048;-65
2024/02/25 07:26:12;;;;;;;21.90;3.47;;;;;;;7.55;100.00;99531.28;5068473;28;20060;-66
2024/02/25 07:28:41;;;;;;;16.75;3.75;;;;;;;7.60;100.00;99525.63;5075413;28;20052;-66
2024/02/25 07:31:15;;;;;;;19.88;3.80;;;;;;;7.59;100.00;99524.00;5066060;28;20064;-65
2024/02/25 07:33:43;;;;;;;17.10;4.80;;;;;;;7.79;100.00;99515.91;5063779;28;20052;-65
2024/02/25 07:36:15;;;;;;;18.75;4.18;;;;;;;7.65;100.00;99522.72;5086400;28;20062;-65
2024/02/25 07:38:43;;;;;;;18.40;3.42;;;;;;;7.81;100.00;99523.84;5057026;28;20044;-65
2024/02/25 07:41:11;;;;;;;19.23;3.33;;;;;;;8.00;100.00;99510.59;5042000;28;20052;-65
2024/02/25 07:43:38;;;;;;;17.80;3.85;;;;;;;7.95;100.00;99505.25;5066825;28;20052;-66
2024/02/25 07:46:06;;;;;;;13.02;3.45;;;;;;;8.22;100.00;99493.91;5067144;28;20052;-65
2024/02/25 07:48:34;;;;;;;20.30;3.22;;;;;;;8.21;100.00;99494.25;5067312;28;20064;-66
2024/02/25 07:51:02;;;;;;;13.80;3.17;;;;;;;8.05;100.00;99498.63;5067923;28;20061;-66
2024/02/25 07:53:29;;;;;;;20.63;3.72;;;;;;;8.14;100.00;99493.94;5066789;28;20053;-66
2024/02/25 07:55:57;;;;;;;15.30;3.50;;;;;;;8.08;100.00;99493.31;5065747;28;20057;-65
2024/02/25 07:58:24;;;;;;;15.93;3.05;;;;;;;8.28;100.00;99495.34;5067976;28;20048;-66
2024/02/25 08:00:51;;;;;;;18.42;3.38;;;;;;;8.14;100.00;99492.00;5066491;28;20095;-64
2024/02/25 08:03:19;;;;;;;18.73;3.20;;;;;;;8.19;100.00;99491.00;5067499;28;20056;-65
2024/02/25 08:05:48;;;;;;;19.48;3.25;;;;;;;8.23;100.00;99487.28;5067143;28;20052;-67
2024/02/25 08:08:16;;;;;;;16.45;3.22;;;;;;;8.26;100.00;99494.91;5067778;28;20067;-65
2024/02/25 08:10:43;;;;;;;24.27;3.90;;;;;;;8.40;100.00;99494.69;5068260;28;20068;-65
2024/02/25 08:13:11;;;;;;;18.23;3.42;;;;;;;8.31;100.00;99497.47;5038568;28;20063;-65
2024/02/25 08:15:38;;;;;;;30.83;3.60;;;;;;;8.29;100.00;99490.69;5067900;28;20052;-65
2024/02/25 08:18:06;;;;;;;22.17;4.20;;;;;;;8.22;100.00;99488.41;5066483;28;20064;-65
2024/02/25 08:20:33;;;;;;;19.58;3.33;;;;;;;8.27;100.00;99480.03;5058128;28;20052;-66
2024/02/25 08:23:03;;;;;;;16.98;3.28;;;;;;;8.22;100.00;99485.69;5068395;28;20060;-64
2024/02/25 08:25:30;;;;;;;25.80;3.22;;;;;;;8.24;100.00;99486.19;5067759;28;20052;-68
2024/02/25 08:27:58;;;;;;;19.45;4.07;;;;;;;8.29;100.00;99480.53;5057032;28;20068;-67
2024/02/25 08:30:25;;;;;;;16.48;2.85;;;;;;;8.23;100.00;99481.78;5057850;28;20041;-65
2024/02/25 08:32:54;;;;;;;18.95;3.70;;;;;;;8.35;100.00;99479.19;5055122;28;20037;-65
2024/02/25 08:35:24;;;;;;;21.02;3.78;;;;;;;8.35;100.00;99470.97;5065103;28;20041;-65
2024/02/25 08:37:52;;;;;;;13.02;2.92;;;;;;;8.23;100.00;99465.31;5068959;28;20055;-65
2024/02/25 08:40:21;;;;;;;17.85;3.13;;;;;;;8.30;100.00;99471.16;5069069;28;20055;-66
2024/02/25 08:42:48;;;;;;;16.83;2.90;;;;;;;8.35;100.00;99470.97;5067631;28;20052;-65
2024/02/25 08:45:16;;;;;;;24.20;3.22;;;;;;;8.20;100.00;99470.66;5049459;28;20055;-66
2024/02/25 08:47:43;;;;;;;23.17;3.38;;;;;;;8.03;100.00;99466.06;5068277;28;20163;-65
2024/02/25 08:50:12;;;;;;;17.10;3.33;;;;;;;8.27;100.00;99468.25;5063348;28;20063;-65
2024/02/25 08:52:40;;;;;;;15.13;2.88;;;;;;;8.46;100.00;99469.47;5060682;28;20049;-66
2024/02/25 08:55:13;;;;;;;16.90;2.95;;;;;;;8.33;100.00;99459.53;5066862;28;20403;-65
2024/02/25 08:57:41;;;;;;;14.88;2.72;;;;;;;8.34;100.00;99466.63;5053078;28;20504;-68
2024/02/25 09:00:09;;;;;;;14.05;2.92;;;;;;;8.52;100.00;99459.94;5068419;28;20053;-67
2024/02/25 09:02:37;;;;;;;12.82;3.03;;;;;;;8.60;99.84;99463.75;5065224;28;20056;-64
2024/02/25 09:05:05;;;;;;;11.65;3.47;;;;;;;8.52;99.14;99459.94;5066193;28;20095;-65
2024/02/25 09:07:36;;;;;;;14.63;2.72;;;;;;;8.70;98.51;99455.16;5063165;28;20045;-64
2024/02/25 09:10:05;;;;;;;;;;;;;;;8.65;98.09;99450.66;5067666;28;20063;-66
2024/02/25 09:12:34;;;;;;;20.65;3.05;;;;;;;8.66;98.27;99454.22;5058864;28;19924;-67
2024/02/25 09:15:02;;;;;;;12.15;2.90;;;;;;;8.74;98.18;99445.09;5058133;28;20049;-66
2024/02/25 09:17:30;;;;;;;15.48;3.13;;;;;;;8.84;98.21;99441.97;5065876;28;20057;-68
2024/02/25 09:19:57;;;;;;;15.40;2.35;;;;;;;8.91;97.11;99434.81;5057590;28;20049;-66
2024/02/25 09:22:25;;;;;;;11.27;2.55;;;;;;;8.84;96.58;99434.53;5060983;28;20063;-65
2024/02/25 09:24:52;;;;;;;10.95;2.33;;;;;;;9.05;95.03;99432.63;5070331;28;20052;-67
2024/02/25 09:27:20;;;;;;;10.98;3.10;;;;;;;8.96;94.60;99423.63;5070469;28;20401;-67
2024/02/25 09:29:47;;;;;;;10.50;2.30;;;;;;;8.99;95.31;99433.97;5064682;28;20051;-66
2024/02/25 09:32:17;;;;;;;9.45;2.65;;;;;;;9.06;95.37;99419.69;5062626;28;20048;-67
2024/02/25 09:34:45;;;;;;;10.70;2.38;;;;;;;9.12;95.32;99420.31;5069949;28;20044;-65
2024/02/25 09:37:13;;;;;;;12.70;2.53;;;;;;;9.15;94.43;99406.72;5065048;28;20087;-66
2024/02/25 09:39:41;;;;;;;14.25;2.35;;;;;;;9.18;94.47;99413.47;5067390;28;20052;-66
2024/02/25 09:42:08;;;;;;;10.40;2.20;;;;;;;9.07;94.28;99404.81;5064517;28;20412;-66
2024/02/25 09:44:36;;;;;;;11.63;2.50;;;;;;;9.01;94.29;99401.47;5058205;28;20060;-64
2024/02/25 09:47:04;;;;;;;12.45;2.17;;;;;;;9.21;94.24;99397.09;5058092;28;20417;-64
2024/02/25 09:49:35;;;;;;;11.07;2.88;;;;;;;9.23;92.81;99392.09;5066291;28;20056;-65
2024/02/25 09:52:03;;;;;;;;;;;;;;;9.22;92.89;99384.19;5051916;28;20415;-63
2024/02/25 09:54:33;;;;;;;16.35;2.60;;;;;;;9.14;93.56;99377.63;5068158;28;19925;-67
2024/02/25 09:57:02;;;;;;;7.60;2.05;;;;;;;9.20;94.26;99381.78;5061748;28;20660;-68
2024/02/25 09:59:35;;;;;;;12.68;2.60;;;;;;;9.31;93.93;99371.19;5040024;28;20049;-66
2024/02/25 10:02:06;;;;;;;9.32;2.97;;;;;;;9.39;92.47;99376.59;5065797;28;20472;-65
2024/02/25 10:04:33;;;;;;;9.82;2.75;;;;;;;9.48;91.93;99371.81;5070018;28;20056;-65
2024/02/25 10:07:03;;;;;;;13.55;2.53;;;;;;;9.25;93.04;99358.78;5066552;28;20061;-66
2024/02/25 10:09:31;;;;;;;9.93;2.67;;;;;;;9.24;93.14;99359.94;5062927;28;20048;-64
2024/02/25 10:11:59;;;;;;;8.32;2.30;;;;;;;9.16;93.62;99358.84;5036113;28;20056;-65
2024/02/25 10:14:27;;;;;;;11.00;2.95;;;;;;;9.39;93.73;99342.81;5069592;28;20806;-64
2024/02/25 10:17:09;;;;;;;11.90;2.63;;;;;;;9.20;93.36;99346.06;5064140;28;20290;-65
2024/02/25 10:19:37;;;;;;;10.10;2.92;;;;;;;9.36;92.71;99335.25;5051469;28;20057;-65
2024/02/25 10:22:11;;;;;;;8.68;2.28;;;;;;;9.35;92.80;99333.63;5066497;28;20081;-64
2024/02/25 10:24:40;;;;;;;11.18;2.63;;;;;;;9.40;92.05;99331.47;5062143;28;20047;-64
2024/02/25 10:27:08;;;;;;;;;;;;;;;9.39;91.08;99320.81;5066801;28;20052;-62
2024/02/25 10:29:52;;;;;;;9.30;2.20;;;;;;;9.59;91.74;99323.50;5064925;28;19924;-66
2024/02/25 10:32:26;;;;;;;10.15;2.50;;;;;;;9.68;90.77;99320.66;5047615;28;20480;-64
2024/02/25 10:34:58;;;;;;;11.30;2.47;;;;;;;9.80;89.97;99307.72;5070290;28;20071;-65
2024/02/25 10:37:26;;;;;;;10.95;3.38;;;;;;;9.59;90.76;99307.00;5066804;28;20067;-65
2024/02/25 10:39:55;;;;;;;11.90;2.90;;;;;;;9.71;91.50;99306.25;5073055;28;20048;-66
2024/02/25 10:42:28;;;;;;;13.05;2.72;;;;;;;10.06;90.12;99299.13;5074265;28;20048;-65
2024/02/25 10:44:56;;;;;;;7.45;2.60;;;;;;;9.78;88.21;99298.22;5064181;28;20044;-66
2024/02/25 10:47:26;;;;;;;6.57;2.13;;;;;;;9.77;89.26;99291.91;5054558;28;20837;-66
2024/02/25 10:49:56;;;;;;;6.97;2.72;;;;;;;9.88;88.57;99292.28;5067968;28;20060;-65
2024/02/25 10:52:27;;;;;;;10.80;2.58;;;;;;;9.83;89.80;99281.50;5064465;28;20067;-67
2024/02/25 10:54:58;;;;;;;8.23;2.67;;;;;;;10.05;88.53;99270.84;5065824;28;20377;-65
2024/02/25 10:57:26;;;;;;;10.43;2.40;;;;;;;9.58;88.64;99266.13;5068804;28;20052;-66
2024/02/25 10:59:55;;;;;;;11.07;2.50;;;;;;;9.72;89.59;99266.59;5068388;28;20049;-66
2024/02/25 11:02:23;;;;;;;7.22;2.70;;;;;;;9.82;89.04;99266.13;5033020;28;20060;-66
2024/02/25 11:04:50;;;;;;;12.55;3.30;;;;;;;9.87;89.21;99250.19;5068623;28;20050;-65
2024/02/25 11:07:19;;;;;;;8.85;2.42;;;;;;;10.07;88.31;99243.78;5049113;28;20053;-66
2024/02/25 11:09:48;;;;;;;7.47;2.30;;;;;;;10.24;87.09;99242.75;5067679;28;20052;-66
2024/02/25 11:12:26;;;;;;;12.98;2.72;;;;;;;10.06;87.06;99235.84;5059739;28;20064;-65
2024/02/25 11:15:05;;;;;;;8.73;2.30;;;;;;;9.92;87.11;99224.44;5068202;28;20044;-65
2024/02/25 11:17:39;;;;;;;5.43;1.83;;;;;;;10.26;85.43;99226.69;5061748;28;20052;-64
2024/02/25 11:20:14;;;;;;;7.85;2.40;;;;;;;10.29;85.80;99219.72;5032196;28;20103;-65
2024/02/25 11:22:46;;;;;;;9.18;2.22;;;;;;;10.50;85.25;99212.06;5051746;28;20170;-66
2024/02/25 11:25:29;;;;;;;11.80;2.20;;;;;;;10.26;83.96;99207.44;5067321;28;20626;-66
2024/02/25 11:28:03;;;;;;;7.30;2.13;;;;;;;10.05;86.30;99202.06;5069310;28;20074;-66
2024/02/25 11:30:38;;;;;;;8.82;2.70;;;;;;;10.20;84.60;99192.31;5066223;28;20043;-65
2024/02/25 11:33:48;;;;;;;7.40;2.17;;;;;;;10.09;85.02;99188.44;5050933;28;20045;-65
2024/02/25 11:36:15;;;;;;;9.93;2.22;;;;;;;10.12;84.13;99179.50;5046679;28;20484;-65
2024/02/25 11:38:46;;;;;;;7.00;2.00;;;;;;;10.07;84.60;99180.53;5046928;28;20056;-65
2024/02/25 11:41:14;;;;;;;7.13;2.00;;;;;;;10.10;84.00;99176.28;5052907;28;20049;-66